Time;durP1;ratioP1;P1;durP2;ratioP2;P2;SDS_P1;SDS_P2;PMS_P1;PMS_P2;Temp;Humidity;BMP_temperature;BMP_pressure;BME280_temperature;BME280_humidity;BME280_pressure;Samples;Min_cycle;Max_cycle;Signal;HPM_P1;HPM_P2
2021/04/17 00:01:11;;;;;;;;;;;;;;;18.83;65.51;101372.06;4994438;28;1716;-59
2021/04/17 00:03:38;;;;;;;;;;;;;;;18.79;65.55;101358.06;4994119;28;1971;-62
2021/04/17 00:06:04;;;;;;;;;;;;;;;18.80;65.52;101359.78;4994874;28;1571;-61
2021/04/17 00:08:30;;;;;;;;;;;;;;;18.77;65.70;101346.56;4994193;28;1418;-61
2021/04/17 00:10:57;;;;;;;;;;;;;;;18.77;66.04;101351.94;4993084;28;1590;-58
2021/04/17 00:13:23;;;;;;;;;;;;;;;18.78;65.60;101356.34;4994831;28;1645;-61
2021/04/17 00:15:49;;;;;;;;;;;;;;;18.78;65.75;101348.28;4993455;28;1710;-59
2021/04/17 00:18:15;;;;;;;;;;;;;;;18.77;65.63;101343.06;4994476;28;1709;-62
2021/04/17 00:20:41;;;;;;;;;;;;;;;18.79;65.69;101344.66;4994307;28;1606;-61
2021/04/17 00:23:07;;;;;;;;;;;;;;;18.76;65.64;101355.59;4994226;28;1898;-59
2021/04/17 00:25:34;;;;;;;;;;;;;;;18.73;65.79;101344.25;4993760;28;1499;-59
2021/04/17 00:28:01;;;;;;;;;;;;;;;18.74;65.72;101351.31;4994171;28;1510;-59
2021/04/17 00:30:27;;;;;;;;;;;;;;;18.74;65.98;101346.84;4993707;28;1657;-59
2021/04/17 00:32:53;;;;;;;;;;;;;;;18.72;65.93;101350.59;4993875;28;1444;-59
2021/04/17 00:35:19;;;;;;;;;;;;;;;18.74;65.73;101354.00;4995023;28;1103;-59
2021/04/17 00:37:45;;;;;;;;;;;;;;;18.80;65.70;101350.88;4993829;28;1516;-59
2021/04/17 00:40:11;;;;;;;;;;;;;;;18.78;65.72;101363.50;4993571;28;1722;-59
2021/04/17 00:42:37;;;;;;;;;;;;;;;18.76;65.49;101362.75;4989818;28;1989;-59
2021/04/17 00:45:06;;;;;;;;;;;;;;;18.77;65.98;101365.34;4993992;28;1581;-59
2021/04/17 00:47:32;;;;;;;;;;;;;;;18.76;65.85;101358.28;4994120;28;1526;-59
2021/04/17 00:49:58;;;;;;;;;;;;;;;18.78;65.73;101358.13;4994792;28;980;-59
2021/04/17 00:52:24;;;;;;;;;;;;;;;18.77;65.63;101369.84;4993985;28;1705;-59
2021/04/17 00:54:51;;;;;;;;;;;;;;;18.76;65.64;101357.41;4993678;28;1680;-59
2021/04/17 00:57:17;;;;;;;;;;;;;;;18.76;65.60;101350.25;4993418;28;1769;-59
2021/04/17 00:59:43;;;;;;;;;;;;;;;18.77;65.61;101346.56;4994149;28;1630;-62
2021/04/17 01:02:10;;;;;;;;;;;;;;;18.73;65.68;101352.31;4994377;28;1985;-61
2021/04/17 01:04:39;;;;;;;;;;;;;;;18.77;65.70;101372.53;4993393;28;1515;-61
2021/04/17 01:07:08;;;;;;;;;;;;;;;18.72;65.67;101356.81;4993522;28;1681;-58
2021/04/17 01:09:36;;;;;;;;;;;;;;;18.72;65.63;101353.25;4992531;28;1769;-61
2021/04/17 01:12:05;;;;;;;;;;;;;;;18.69;65.70;101349.00;4993338;28;1885;-61
2021/04/17 01:14:32;;;;;;;;;;;;;;;18.71;65.65;101351.56;4993440;28;1406;-59
2021/04/17 01:16:58;;;;;;;;;;;;;;;18.71;65.62;101347.06;4993787;28;1599;-61
2021/04/17 01:19:30;;;;;;;;;;;;;;;18.68;65.65;101341.91;4993792;28;1571;-62
2021/04/17 01:21:57;;;;;;;;;;;;;;;18.71;65.48;101340.84;4993329;28;1981;-58
2021/04/17 01:24:25;;;;;;;;;;;;;;;18.69;65.58;101344.50;4997098;28;1494;-59
2021/04/17 01:26:52;;;;;;;;;;;;;;;18.68;65.71;101339.25;4997075;28;1633;-61
2021/04/17 01:29:19;;;;;;;;;;;;;;;18.65;65.58;101326.94;4997063;28;1704;-59
2021/04/17 01:31:45;;;;;;;;;;;;;;;18.65;65.48;101335.00;4997369;28;1537;-58
2021/04/17 01:34:11;;;;;;;;;;;;;;;18.66;65.49;101323.31;4998269;28;1034;-61
2021/04/17 01:36:38;;;;;;;;;;;;;;;18.63;65.57;101331.56;4997432;28;1714;-59
2021/04/17 01:39:06;;;;;;;;;;;;;;;18.63;65.45;101326.22;4996777;28;1767;-61
2021/04/17 01:41:34;;;;;;;;;;;;;;;18.64;65.73;101327.06;4996675;28;1502;-61
2021/04/17 01:44:03;;;;;;;;;;;;;;;18.61;65.32;101314.78;4997343;28;1967;-58
2021/04/17 01:46:31;;;;;;;;;;;;;;;18.62;65.58;101315.63;4996672;28;1605;-61
2021/04/17 01:48:59;;;;;;;;;;;;;;;18.61;65.39;101317.44;4996841;28;1347;-58
2021/04/17 01:51:26;;;;;;;;;;;;;;;18.59;65.76;101303.31;4996955;28;1710;-61
2021/04/17 01:53:52;;;;;;;;;;;;;;;18.57;65.66;101299.91;4996835;28;1414;-59
2021/04/17 01:56:20;;;;;;;;;;;;;;;18.62;65.17;101313.81;4996559;28;1827;-59
2021/04/17 01:58:47;;;;;;;;;;;;;;;18.63;65.29;101315.50;4997714;28;987;-61
2021/04/17 02:01:18;;;;;;;;;;;;;;;18.64;65.42;101298.47;5014287;23;2020;-44
2021/04/17 02:03:45;;;;;;;;;;;;;;;18.64;65.44;101298.47;5011516;28;1941;-47
2021/04/17 02:06:12;;;;;;;;;;;;;;;18.63;65.32;101306.63;5011620;28;1708;-46
2021/04/17 02:08:40;;;;;;;;;;;;;;;18.63;65.56;101315.50;5013549;28;1711;-47
2021/04/17 02:11:07;;;;;;;;;;;;;;;18.62;65.53;101305.78;5019323;23;3526;-61
2021/04/17 02:13:34;;;;;;;;;;;;;;;18.63;65.60;101304.78;5032916;28;1596;-58
2021/04/17 02:16:02;;;;;;;;;;;;;;;18.62;65.12;101296.88;5033911;28;1471;-58
2021/04/17 02:18:34;;;;;;;;;;;;;;;18.59;65.47;101295.28;5034503;28;1684;-58
2021/04/17 02:21:02;;;;;;;;;;;;;;;18.60;65.47;101293.47;5033764;28;1998;-61
2021/04/17 02:23:29;;;;;;;;;;;;;;;18.61;65.53;101287.13;5025102;28;1973;-61
2021/04/17 02:25:56;;;;;;;;;;;;;;;18.61;65.45;101293.34;5033929;28;1487;-58
2021/04/17 02:28:22;;;;;;;;;;;;;;;18.59;65.71;101295.28;5033664;28;1529;-58
2021/04/17 02:30:48;;;;;;;;;;;;;;;18.61;65.68;101303.22;5033901;28;1405;-58
2021/04/17 02:33:14;;;;;;;;;;;;;;;18.59;64.60;101289.94;5033657;28;1531;-61
2021/04/17 02:35:41;;;;;;;;;;;;;;;18.96;64.33;101303.16;5033022;28;1592;-58
2021/04/17 02:38:07;;;;;;;;;;;;;;;19.82;61.66;101285.44;5032348;28;1502;-58
2021/04/17 02:40:33;;;;;;;;;;;;;;;20.34;60.53;101273.94;5033451;28;1507;-59
2021/04/17 02:42:59;;;;;;;;;;;;;;;20.00;61.61;101268.75;5033832;28;1975;-61
2021/04/17 02:45:25;;;;;;;;;;;;;;;20.16;61.17;101282.59;5026738;28;1441;-62
2021/04/17 02:47:52;;;;;;;;;;;;;;;20.57;60.63;101290.75;5029513;28;1450;-58
2021/04/17 02:50:19;;;;;;;;;;;;;;;20.28;61.01;101286.06;5034727;28;1069;-61
2021/04/17 02:52:46;;;;;;;;;;;;;;;20.02;61.64;101274.84;5033060;28;1509;-61
2021/04/17 02:55:13;;;;;;;;;;;;;;;20.38;60.82;101259.25;5033379;28;1712;-60
2021/04/17 02:57:39;;;;;;;;;;;;;;;20.97;60.11;101277.41;5023522;28;11258;-58
2021/04/17 03:00:06;;;;;;;;;;;;;;;20.60;60.07;101294.06;5033682;28;1573;-58
2021/04/17 03:02:32;;;;;;;;;;;;;;;20.18;62.07;101283.31;5027664;28;1899;-58
2021/04/17 03:04:59;;;;;;;;;;;;;;;20.04;62.40;101272.91;5011461;28;1498;-58
2021/04/17 03:07:25;;;;;;;;;;;;;;;20.13;62.24;101273.94;5019111;28;1795;-58
2021/04/17 03:09:52;;;;;;;;;;;;;;;20.34;61.25;101274.78;5023259;28;1449;-58
2021/04/17 03:12:18;;;;;;;;;;;;;;;20.51;61.25;101273.31;5018420;28;1549;-62
2021/04/17 03:14:44;;;;;;;;;;;;;;;20.62;61.44;101283.19;5023667;28;1522;-58
2021/04/17 03:17:10;;;;;;;;;;;;;;;20.84;60.20;101282.16;5019322;28;1467;-62
2021/04/17 03:19:36;;;;;;;;;;;;;;;20.82;60.81;101286.81;5004318;28;1680;-58
2021/04/17 03:22:03;;;;;;;;;;;;;;;20.78;60.87;101282.69;5018765;28;1910;-62
2021/04/17 03:24:29;;;;;;;;;;;;;;;20.38;62.06;101275.38;5023212;28;1573;-58
2021/04/17 03:26:56;;;;;;;;;;;;;;;20.15;61.78;101286.25;5023249;28;1715;-58
2021/04/17 03:29:22;;;;;;;;;;;;;;;20.08;63.05;101292.28;5017149;28;1476;-60
2021/04/17 03:31:48;;;;;;;;;;;;;;;20.14;62.66;101295.28;5024275;28;1618;-62
2021/04/17 03:34:14;;;;;;;;;;;;;;;20.07;63.24;101310.19;5015468;28;1465;-61
2021/04/17 03:36:40;;;;;;;;;;;;;;;19.84;64.39;101294.22;5018773;28;1598;-59
2021/04/17 03:39:07;;;;;;;;;;;;;;;19.65;64.08;101310.94;5021763;28;1744;-64
2021/04/17 03:41:33;;;;;;;;;;;;;;;19.57;64.18;101315.25;5021033;28;1578;-62
2021/04/17 03:44:00;;;;;;;;;;;;;;;19.45;64.48;101320.63;5020852;28;1906;-58
2021/04/17 03:46:26;;;;;;;;;;;;;;;19.38;64.48;101324.78;5025952;28;1452;-61
2021/04/17 03:48:52;;;;;;;;;;;;;;;19.34;64.54;101323.34;5017915;28;1533;-61
2021/04/17 03:51:18;;;;;;;;;;;;;;;19.29;65.04;101341.63;5004266;28;1705;-61
2021/04/17 03:53:44;;;;;;;;;;;;;;;19.22;65.29;101335.06;5021078;28;1449;-58
2021/04/17 03:56:10;;;;;;;;;;;;;;;19.19;65.75;101344.19;5021523;28;1499;-58
2021/04/17 03:58:36;;;;;;;;;;;;;;;19.20;65.46;101347.72;5023537;28;982;-58
2021/04/17 04:01:03;;;;;;;;;;;;;;;19.15;65.68;101349.91;5025128;28;1700;-58
2021/04/17 04:03:29;;;;;;;;;;;;;;;19.10;65.35;101346.75;5022990;28;1914;-61
2021/04/17 04:05:55;;;;;;;;;;;;;;;19.08;65.42;101349.56;5007119;28;1571;-58
2021/04/17 04:08:21;;;;;;;;;;;;;;;19.08;65.39;101353.09;5022069;28;1590;-58
2021/04/17 04:10:47;;;;;;;;;;;;;;;19.02;65.10;101350.03;5014815;28;1529;-58
2021/04/17 04:13:13;;;;;;;;;;;;;;;19.01;65.81;101357.22;5020801;28;978;-58
2021/04/17 04:15:39;;;;;;;;;;;;;;;18.98;65.41;101352.13;5020513;28;1700;-58
2021/04/17 04:18:07;;;;;;;;;;;;;;;18.98;65.44;101368.19;5023700;28;1404;-61
2021/04/17 04:20:33;;;;;;;;;;;;;;;18.95;65.48;101370.25;5016725;28;1572;-61
2021/04/17 04:22:59;;;;;;;;;;;;;;;18.92;65.47;101366.00;5021553;28;1989;-58
2021/04/17 04:25:25;;;;;;;;;;;;;;;18.92;65.63;101360.66;5020468;28;1777;-58
2021/04/17 04:27:51;;;;;;;;;;;;;;;18.92;65.50;101352.59;5019507;28;1504;-61
2021/04/17 04:30:17;;;;;;;;;;;;;;;18.88;65.67;101362.72;5020274;28;1711;-61
2021/04/17 04:32:44;;;;;;;;;;;;;;;18.88;65.54;101369.91;5021254;28;1573;-61
2021/04/17 04:35:12;;;;;;;;;;;;;;;18.93;65.41;101372.22;5017123;28;1489;-58
2021/04/17 04:37:38;;;;;;;;;;;;;;;18.92;64.88;101366.00;5017379;28;1674;-61
2021/04/17 04:40:05;;;;;;;;;;;;;;;18.91;65.17;101348.22;5020846;28;1528;-58
2021/04/17 04:42:31;;;;;;;;;;;;;;;18.94;65.15;101366.75;5021674;28;1902;-58
2021/04/17 04:44:57;;;;;;;;;;;;;;;19.00;64.91;101358.22;5021848;28;1637;-58
2021/04/17 04:47:23;;;;;;;;;;;;;;;19.08;65.19;101361.13;5021931;28;1569;-58
2021/04/17 04:49:49;;;;;;;;;;;;;;;19.15;65.21;101355.28;5015175;28;1591;-58
2021/04/17 04:52:17;;;;;;;;;;;;;;;19.12;64.49;101368.91;5013744;28;1486;-61
2021/04/17 04:54:43;;;;;;;;;;;;;;;18.97;64.61;101358.44;5018481;28;1507;-60
2021/04/17 04:57:09;;;;;;;;;;;;;;;18.86;64.44;101351.25;5013459;28;1480;-58
2021/04/17 04:59:35;;;;;;;;;;;;;;;18.84;64.08;101358.56;5012765;28;1708;-62
2021/04/17 05:02:01;;;;;;;;;;;;;;;18.80;64.15;101346.38;5017536;28;1691;-63
2021/04/17 05:04:27;;;;;;;;;;;;;;;18.81;64.03;101341.88;5016772;28;1359;-60
2021/04/17 05:06:53;;;;;;;;;;;;;;;18.84;64.07;101357.69;5019369;28;1436;-59
2021/04/17 05:09:20;;;;;;;;;;;;;;;18.83;63.87;101366.72;5019952;28;1489;-63
2021/04/17 05:11:46;;;;;;;;;;;;;;;18.80;64.24;101351.75;5019842;28;1433;-61
2021/04/17 05:14:12;;;;;;;;;;;;;;;18.81;63.89;101352.59;5018753;28;1525;-59
2021/04/17 05:16:39;;;;;;;;;;;;;;;18.85;63.78;101348.69;5021004;28;1500;-59
2021/04/17 05:19:05;;;;;;;;;;;;;;;18.84;64.15;101349.66;5021086;28;1274;-62
2021/04/17 05:21:31;;;;;;;;;;;;;;;18.83;63.86;101348.81;5017758;28;1441;-56
2021/04/17 05:23:57;;;;;;;;;;;;;;;18.83;63.82;101350.63;5019871;28;1906;-60
2021/04/17 05:26:24;;;;;;;;;;;;;;;18.82;64.17;101354.28;5019393;28;1520;-60
2021/04/17 05:28:50;;;;;;;;;;;;;;;18.80;64.06;101346.38;5020729;28;1473;-58
2021/04/17 05:31:16;;;;;;;;;;;;;;;18.79;63.86;101344.66;5021225;28;1417;-60
2021/04/17 05:33:42;;;;;;;;;;;;;;;18.80;64.00;101343.69;5019546;28;1072;-61
2021/04/17 05:36:09;;;;;;;;;;;;;;;18.80;64.12;101343.69;5016890;28;1501;-55
2021/04/17 05:38:35;;;;;;;;;;;;;;;18.77;63.95;101335.00;5020259;28;1445;-55
2021/04/17 05:41:01;;;;;;;;;;;;;;;18.81;64.35;101341.88;5020469;28;1480;-60
2021/04/17 05:44:20;;;;;;;;;;;;;;;18.81;64.33;101329.31;5117101;27;1543;-59
2021/04/17 05:46:46;;;;;;;;;;;;;;;18.81;64.05;101318.59;5104314;28;1473;-57
2021/04/17 05:49:13;;;;;;;;;;;;;;;18.80;63.74;101310.69;5101536;28;1430;-57
2021/04/17 05:51:39;;;;;;;;;;;;;;;18.81;64.15;101320.44;5107608;28;1218;-60
2021/04/17 05:54:06;;;;;;;;;;;;;;;18.84;63.80;101317.50;5106140;28;1525;-62
2021/04/17 05:56:32;;;;;;;;;;;;;;;18.85;63.78;101301.31;5103717;28;1756;-59
2021/04/17 05:58:58;;;;;;;;;;;;;;;18.85;63.85;101316.53;5101328;28;1497;-60
2021/04/17 06:01:25;;;;;;;;;;;;;;;18.86;63.57;101294.09;5098673;28;1525;-59
2021/04/17 06:03:52;;;;;;;;;;;;;;;18.89;63.38;101312.63;5083509;28;1913;-59
2021/04/17 06:06:18;;;;;;;;;;;;;;;18.84;63.35;101313.00;5082977;28;2098;-59
2021/04/17 06:08:44;;;;;;;;;;;;;;;18.81;63.64;101310.56;5084216;28;1523;-61
2021/04/17 06:11:11;;;;;;;;;;;;;;;18.82;63.87;101312.28;5086449;28;1130;-59
2021/04/17 06:13:37;;;;;;;;;;;;;;;18.79;64.19;101306.28;5083502;28;1486;-60
2021/04/17 06:16:04;;;;;;;;;;;;;;;18.80;63.99;101302.63;5086157;28;1594;-61
2021/04/17 06:18:31;;;;;;;;;;;;;;;18.80;63.85;101302.63;5083157;28;1454;-59
2021/04/17 06:20:57;;;;;;;;;;;;;;;18.81;63.85;101302.53;5081908;28;1487;-56
2021/04/17 06:23:24;;;;;;;;;;;;;;;18.82;63.73;101311.41;5082773;28;1902;-62
2021/04/17 06:25:50;;;;;;;;;;;;;;;18.78;63.92;101304.56;5082979;28;1431;-61
2021/04/17 06:28:16;;;;;;;;;;;;;;;18.74;64.21;101293.25;5083901;28;1518;-59
2021/04/17 06:30:42;;;;;;;;;;;;;;;18.77;64.17;101292.16;5084763;28;1525;-59
2021/04/17 06:33:09;;;;;;;;;;;;;;;18.74;64.59;101293.25;5085597;28;1534;-59
2021/04/17 06:35:36;;;;;;;;;;;;;;;18.47;64.31;101242.69;5085262;28;1445;-59
2021/04/17 06:38:03;;;;;;;;;;;;;;;18.69;64.43;101295.41;5086441;28;1832;-59
2021/04/17 06:40:29;;;;;;;;;;;;;;;18.74;64.38;101297.72;5083123;28;1451;-59
2021/04/17 06:42:58;;;;;;;;;;;;;;;18.76;64.34;101301.13;5084046;28;1985;-58
2021/04/17 06:45:24;;;;;;;;;;;;;;;18.78;64.23;101288.47;5082810;28;1490;-59
2021/04/17 06:47:50;;;;;;;;;;;;;;;18.78;63.83;101297.38;5080929;28;1290;-59
2021/04/17 06:50:17;;;;;;;;;;;;;;;18.81;64.11;101289.13;5081342;28;1399;-59
2021/04/17 06:52:45;;;;;;;;;;;;;;;19.07;63.22;101287.03;5080635;28;1462;-59
2021/04/17 06:55:12;;;;;;;;;;;;;;;19.05;63.11;101274.75;5069388;28;1554;-57
2021/04/17 06:57:39;;;;;;;;;;;;;;;18.96;63.85;101260.28;5068975;28;1423;-57
2021/04/17 07:00:06;;;;;;;;;;;;;;;18.90;64.26;101287.56;5069215;28;1600;-59
2021/04/17 07:02:32;;;;;;;;;;;;;;;18.91;63.88;101275.84;5070126;28;1984;-58
2021/04/17 07:04:58;;;;;;;;;;;;;;;18.90;63.55;101271.47;5071554;28;1411;-57
2021/04/17 07:07:24;;;;;;;;;;;;;;;18.88;62.60;101263.56;5064518;28;1477;-64
2021/04/17 07:09:52;;;;;;;;;;;;;;;18.87;62.39;101277.91;5068413;28;1715;-55
2021/04/17 07:12:18;;;;;;;;;;;;;;;18.90;62.21;101284.00;5071643;28;1171;-63
2021/04/17 07:14:44;;;;;;;;;;;;;;;18.45;63.56;101279.44;5070220;28;1420;-62
2021/04/17 07:17:10;;;;;;;;;;;;;;;18.56;63.31;101265.22;5063557;28;1512;-63
2021/04/17 07:19:47;;;;;;;;;;;;;;;18.72;62.41;101271.09;5069940;28;1427;-68
2021/04/17 07:22:17;;;;;;;;;;;;;;;18.69;61.89;101263.28;5062855;28;1902;-59
2021/04/17 07:24:43;;;;;;;;;;;;;;;18.82;61.48;101250.66;5062910;28;1441;-58
2021/04/17 07:27:29;;;;;;;;;;;;;;;18.86;61.56;101256.59;5063707;28;1635;-58
2021/04/17 07:29:55;;;;;;;;;;;;;;;18.92;61.67;101258.81;5061576;28;1460;-58
2021/04/17 07:32:22;;;;;;;;;;;;;;;18.93;62.18;101249.78;5065717;28;1478;-60
2021/04/17 07:35:02;;;;;;;;;;;;;;;18.96;61.60;101246.88;5058458;28;1462;-60
2021/04/17 07:37:29;;;;;;;;;;;;;;;19.01;61.73;101235.75;5065184;28;1569;-58
2021/04/17 07:39:55;;;;;;;;;;;;;;;19.03;61.98;101248.06;5069668;28;1417;-63
2021/04/17 07:42:34;;;;;;;;;;;;;;;19.05;62.03;101243.41;5068453;28;1976;-58
2021/04/17 07:45:01;;;;;;;;;;;;;;;19.09;62.04;101244.03;5070742;28;1627;-59
2021/04/17 07:47:33;;;;;;;;;;;;;;;19.08;61.91;101234.31;5070363;28;1410;-59
2021/04/17 07:50:05;;;;;;;;;;;;;;;19.02;62.30;101224.94;5066703;28;1498;-58
2021/04/17 07:52:32;;;;;;;;;;;;;;;19.15;62.11;101238.16;5068129;28;1412;-58
2021/04/17 07:55:05;;;;;;;;;;;;;;;19.13;62.09;101229.41;5069564;28;1585;-60
2021/04/17 07:57:33;;;;;;;;;;;;;;;19.10;62.35;101234.16;5070545;28;1259;-61
2021/04/17 07:59:59;;;;;;;;;;;;;;;19.14;62.24;101235.59;5070253;28;1523;-58
2021/04/17 08:02:26;;;;;;;;;;;;;;;19.13;62.56;101236.59;5068188;28;2211;-58
2021/04/17 08:04:53;;;;;;;;;;;;;;;19.06;61.89;101234.41;5067186;28;1658;-61
2021/04/17 08:07:20;;;;;;;;;;;;;;;19.17;61.54;101224.66;5068519;28;1571;-58
2021/04/17 08:09:47;;;;;;;;;;;;;;;19.21;61.66;101215.38;5061588;28;1619;-60
2021/04/17 08:12:15;;;;;;;;;;;;;;;19.23;61.09;101214.25;5068337;28;1354;-63
2021/04/17 08:14:42;;;;;;;;;;;;;;;19.27;60.82;101217.53;5067358;28;1542;-61
2021/04/17 08:17:09;;;;;;;;;;;;;;;19.30;60.51;101203.91;5065023;28;1411;-61
2021/04/17 08:19:35;;;;;;;;;;;;;;;19.32;60.31;101210.00;5066732;28;1440;-62
2021/04/17 08:22:01;;;;;;;;;;;;;;;19.34;60.92;101199.97;5064457;28;1415;-60
2021/04/17 08:24:29;;;;;;;;;;;;;;;19.39;61.34;101208.47;5062712;28;1964;-62
2021/04/17 08:26:55;;;;;;;;;;;;;;;19.42;61.50;101202.88;5069911;28;1280;-62
2021/04/17 08:29:40;;;;;;;;;;;;;;;19.37;61.85;101207.75;5067760;28;1544;-62
2021/04/17 08:32:21;;;;;;;;;;;;;;;19.37;62.98;101198.88;5065241;28;1474;-62
2021/04/17 08:34:56;;;;;;;;;;;;;;;19.38;62.05;101179.97;5066569;28;1497;-58
2021/04/17 08:37:23;;;;;;;;;;;;;;;19.45;62.20;101180.31;5063092;28;1464;-60
2021/04/17 08:39:53;;;;;;;;;;;;;;;19.43;62.80;101185.78;5064524;28;1566;-59
2021/04/17 08:42:19;;;;;;;;;;;;;;;19.43;62.34;101175.06;5068898;28;1910;-60
2021/04/17 08:44:47;;;;;;;;;;;;;;;19.48;62.38;101180.06;5066998;28;1557;-60
2021/04/17 08:47:34;;;;;;;;;;;;;;;19.46;62.07;101176.66;5065611;28;1518;-60
2021/04/17 08:50:20;;;;;;;;;;;;;;;19.45;62.70;101173.09;5066338;28;1435;-59
2021/04/17 08:52:46;;;;;;;;;;;;;;;19.24;62.46;101132.84;5064725;28;1616;-66
2021/04/17 08:55:17;;;;;;;;;;;;;;;19.47;62.48;101168.47;5066036;28;1620;-59
2021/04/17 08:57:43;;;;;;;;;;;;;;;19.48;62.29;101166.66;5072458;28;1486;-64
2021/04/17 09:00:10;;;;;;;;;;;;;;;19.54;62.82;101165.28;5063935;28;1294;-63
2021/04/17 09:02:44;;;;;;;;;;;;;;;19.58;62.29;101151.47;5067422;28;1997;-64
2021/04/17 09:05:13;;;;;;;;;;;;;;;19.68;62.45;101135.44;5064155;28;1706;-64
2021/04/17 09:07:41;;;;;;;;;;;;;;;19.78;62.21;101128.34;5066483;28;1573;-61
2021/04/17 09:10:25;;;;;;;;;;;;;;;19.82;62.38;101129.78;5061995;28;1560;-64
2021/04/17 09:13:23;;;;;;;;;;;;;;;19.76;62.06;101130.31;5059787;28;1726;-64
2021/04/17 09:15:50;;;;;;;;;;;;;;;19.70;62.41;101130.81;5057699;28;2047;-61
2021/04/17 09:18:31;;;;;;;;;;;;;;;19.69;62.70;101129.09;5070296;28;1695;-64
2021/04/17 09:20:58;;;;;;;;;;;;;;;19.72;62.27;101120.81;5064101;28;1443;-62
2021/04/17 09:23:35;;;;;;;;;;;;;;;19.74;62.75;101126.91;5066943;28;1906;-64
2021/04/17 09:26:01;;;;;;;;;;;;;;;19.78;61.81;101117.59;5061391;28;1268;-63
2021/04/17 09:28:35;;;;;;;;;;;;;;;19.80;62.06;101109.44;5070050;28;1463;-61
2021/04/17 09:31:01;;;;;;;;;;;;;;;19.81;62.22;101109.28;5069155;28;1527;-61
2021/04/17 09:33:28;;;;;;;;;;;;;;;19.89;61.94;101094.34;5062129;28;1548;-61
2021/04/17 09:35:54;;;;;;;;;;;;;;;19.93;61.09;101093.94;5062205;28;1568;-63
2021/04/17 09:38:22;;;;;;;;;;;;;;;19.94;62.21;101100.19;5064969;28;1548;-63
2021/04/17 09:40:49;;;;;;;;;;;;;;;19.86;61.64;101079.38;5063976;28;998;-63
2021/04/17 09:43:23;;;;;;;;;;;;;;;19.85;61.78;101091.06;5066723;28;1910;-63
2021/04/17 09:45:50;;;;;;;;;;;;;;;19.80;62.53;101078.06;5068078;28;1481;-64
2021/04/17 09:48:19;;;;;;;;;;;;;;;19.53;62.36;101037.50;5065956;28;1572;-62
2021/04/17 09:50:45;;;;;;;;;;;;;;;19.91;62.32;101068.22;5064069;28;1471;-64
2021/04/17 09:53:12;;;;;;;;;;;;;;;19.93;62.06;101067.09;5066494;28;1305;-62
2021/04/17 09:55:53;;;;;;;;;;;;;;;19.98;61.57;101054.13;5068868;28;1722;-55
2021/04/17 09:58:20;;;;;;;;;;;;;;;19.98;61.22;101045.25;5065099;28;1446;-60
2021/04/17 10:00:46;;;;;;;;;;;;;;;19.99;61.79;101044.25;5061130;28;1458;-59
2021/04/17 10:03:13;;;;;;;;;;;;;;;19.99;61.59;101045.09;5064363;28;1902;-58
2021/04/17 10:05:39;;;;;;;;;;;;;;;20.00;61.67;101048.66;5062903;28;1474;-55
2021/04/17 10:08:05;;;;;;;;;;;;;;;19.96;61.63;101049.91;5065594;28;1372;-57
2021/04/17 10:10:34;;;;;;;;;;;;;;;19.93;61.94;101047.47;5064526;28;1556;-55
2021/04/17 10:13:01;;;;;;;;;;;;;;;19.94;61.85;101044.66;5067621;28;1373;-57
2021/04/17 10:15:28;;;;;;;;;;;;;;;19.97;61.95;101048.91;5065848;28;1489;-58
2021/04/17 10:17:56;;;;;;;;;;;;;;;20.00;61.45;101045.97;5067885;28;1361;-57
2021/04/17 10:20:22;;;;;;;;;;;;;;;19.96;61.96;101040.00;5067491;28;1512;-57
2021/04/17 10:22:52;;;;;;;;;;;;;;;19.88;62.46;101036.31;5066530;28;1895;-57
2021/04/17 10:25:32;;;;;;;;;;;;;;;19.99;62.78;101038.88;5065841;28;1460;-56
2021/04/17 10:28:09;;;;;;;;;;;;;;;19.99;61.11;101038.88;5062767;28;1515;-57
2021/04/17 10:30:36;;;;;;;;;;;;;;;19.85;62.62;101035.56;5065894;28;1437;-56
2021/04/17 10:33:03;;;;;;;;;;;;;;;19.86;62.67;101026.53;4367817;28;10000858;-57
2021/04/17 10:35:33;;;;;;;;;;;;;;;19.80;62.26;101028.94;4743038;28;9999877;-56
2021/04/17 10:38:00;;;;;;;;;;;;;;;19.75;60.42;101026.63;5087961;28;1511;-57
2021/04/17 10:40:26;;;;;;;;;;;;;;;19.63;56.70;101020.47;5098465;28;1636;-57
2021/04/17 10:42:53;;;;;;;;;;;;;;;19.58;56.14;101033.44;5090376;28;1977;-56
2021/04/17 10:45:20;;;;;;;;;;;;;;;19.52;59.00;101025.94;5092551;28;1626;-56
2021/04/17 10:47:57;;;;;;;;;;;;;;;19.51;58.45;101034.09;5101772;28;1384;-56
2021/04/17 10:50:24;;;;;;;;;;;;;;;19.48;57.22;101021.81;5093924;28;1592;-56
2021/04/17 10:53:04;;;;;;;;;;;;;;;19.47;55.47;101018.25;5098822;28;1528;-57
2021/04/17 10:55:31;;;;;;;;;;;;;;;19.44;56.92;101013.19;5093901;28;1603;-56
2021/04/17 10:57:57;;;;;;;;;;;;;;;19.40;53.84;101017.09;5096000;28;1494;-56
2021/04/17 11:00:27;;;;;;;;;;;;;;;19.37;53.52;101005.78;5098505;28;1342;-56
2021/04/17 11:02:54;;;;;;;;;;;;;;;19.38;56.74;101007.50;5092933;28;1906;-56
2021/04/17 11:05:21;;;;;;;;;;;;;;;19.36;56.54;101010.31;5093559;28;1532;-56
2021/04/17 11:07:47;;;;;;;;;;;;;;;19.35;53.38;101007.75;5052753;28;1431;-56
2021/04/17 11:10:13;;;;;;;;;;;;;;;19.31;53.55;101009.84;5063568;28;1564;-56
2021/04/17 11:12:39;;;;;;;;;;;;;;;19.27;54.00;101003.03;5053266;28;1553;-56
2021/04/17 11:15:12;;;;;;;;;;;;;;;19.30;53.98;100994.75;5063807;28;1575;-56
2021/04/17 11:17:39;;;;;;;;;;;;;;;19.26;50.60;100998.69;5061257;28;1766;-56
2021/04/17 11:20:15;;;;;;;;;;;;;;;19.23;51.72;100994.41;5055174;28;1448;-56
2021/04/17 11:22:42;;;;;;;;;;;;;;;19.24;55.48;100992.59;5055576;28;1906;-57
2021/04/17 11:25:10;;;;;;;;;;;;;;;19.23;50.95;100991.72;5058757;28;1335;-56
2021/04/17 11:27:36;;;;;;;;;;;;;;;19.37;54.08;100984.34;5063900;28;1861;-56
2021/04/17 11:30:04;;;;;;;;;;;;;;;19.52;53.52;100999.09;5065439;28;1354;-62
2021/04/17 11:32:30;;;;;;;;;;;;;;;19.50;52.49;100987.66;5066495;28;1456;-65
2021/04/17 11:34:56;;;;;;;;;;;;;;;19.59;54.16;100994.03;5068326;28;1782;-62
2021/04/17 11:37:23;;;;;;;;;;;;;;;19.66;53.79;100984.50;5064389;28;1377;-57
2021/04/17 11:39:51;;;;;;;;;;;;;;;19.70;54.49;100980.56;5064863;28;1417;-55
2021/04/17 11:42:17;;;;;;;;;;;;;;;19.83;54.94;100975.81;5070422;28;1628;-57
2021/04/17 11:44:43;;;;;;;;;;;;;;;19.86;54.38;100980.91;5069769;28;1906;-58
2021/04/17 11:47:09;;;;;;;;;;;;;;;19.82;54.94;100968.75;5063206;28;1353;-57
2021/04/17 11:49:35;;;;;;;;;;;;;;;19.83;56.37;100965.06;5067298;28;1471;-57
2021/04/17 11:52:01;;;;;;;;;;;;;;;19.82;56.16;100968.75;5067627;28;1569;-57
2021/04/17 11:54:27;;;;;;;;;;;;;;;19.82;56.38;100966.06;5066941;28;1288;-57
2021/04/17 11:56:54;;;;;;;;;;;;;;;19.79;57.17;100966.34;5070476;28;1398;-57
2021/04/17 11:59:20;;;;;;;;;;;;;;;19.88;56.20;100961.16;5066338;28;1239;-57
2021/04/17 12:01:47;;;;;;;;;;;;;;;19.90;56.22;100959.19;5065138;28;1442;-59
2021/04/17 12:04:13;;;;;;;;;;;;;;;19.90;56.50;100948.44;5067232;28;1910;-57
2021/04/17 12:06:39;;;;;;;;;;;;;;;19.90;56.86;100957.34;5065216;28;1387;-58
2021/04/17 12:09:06;;;;;;;;;;;;;;;19.96;56.97;100958.63;5059339;28;1491;-58
2021/04/17 12:11:32;;;;;;;;;;;;;;;20.03;56.61;100965.13;5059721;28;1063;-60
2021/04/17 12:13:59;;;;;;;;;;;;;;;19.93;57.80;100959.75;5066866;28;1245;-60
2021/04/17 12:16:26;;;;;;;;;;;;;;;19.85;57.75;100960.41;5068182;28;1390;-60
2021/04/17 12:18:52;;;;;;;;;;;;;;;19.79;58.16;100944.03;5063152;28;1222;-59
2021/04/17 12:21:19;;;;;;;;;;;;;;;19.79;58.23;100946.72;5064177;28;1379;-62
2021/04/17 12:23:47;;;;;;;;;;;;;;;19.77;57.94;100949.53;5063660;28;1902;-59
2021/04/17 12:26:12;;;;;;;;;;;;;;;19.76;58.17;100953.19;5066797;28;1091;-59
2021/04/17 12:28:39;;;;;;;;;;;;;;;19.73;58.57;100932.00;5067134;28;1445;-58
2021/04/17 12:31:06;;;;;;;;;;;;;;;19.76;57.96;100938.94;5065505;28;1369;-59
2021/04/17 12:33:32;;;;;;;;;;;;;;;19.75;58.06;100932.72;5062876;28;1561;-61
2021/04/17 12:35:58;;;;;;;;;;;;;;;19.77;57.95;100930.75;5071133;28;1506;-63
2021/04/17 12:38:24;;;;;;;;;;;;;;;19.84;58.12;100925.69;5057325;28;1603;-58
2021/04/17 12:40:54;;;;;;;;;;;;;;;19.96;57.30;100931.81;5062530;28;1358;-59
2021/04/17 12:43:20;;;;;;;;;;;;;;;19.93;56.88;100937.44;5060887;28;1918;-58
2021/04/17 12:45:47;;;;;;;;;;;;;;;19.82;57.17;100930.34;5060462;28;1390;-60
2021/04/17 12:48:15;;;;;;;;;;;;;;;19.79;56.78;100920.72;5086367;28;1220;-60